Aviation Digital Data Service (ADDS)

Output produced by METARs form (1817 UTC 18 April 2019)
found at http://www.aviationweather.gov/metar/data/
 
Forecast for: ZSHC (HANGZHOU/JIANQIA, CN)
Text: TAF ZSHC 181502Z 1818/1918 09003MPS 3000 BR NSC TX30/1906Z TN18/1821Z
Forecast period: 1800 UTC 18 April 2019 to 1800 UTC 19 April 2019
Forecast type: FROM: standard forecast or significant change
Winds: from the E (90 degrees) at 7 MPH (6 knots; 3.1 m/s)
Visibility: 1.86 miles (2.99 km)
Ceiling: unknown
Clouds: missing
Weather: BR  (mist)